createdAt,value
2018-08-06T00:00:38.045Z,100089.00
2018-08-06T00:03:07.818Z,100086.00
2018-08-06T00:05:37.267Z,100082.00
2018-08-06T00:08:07.738Z,100077.00
2018-08-06T00:10:37.181Z,100085.00
2018-08-06T00:13:06.730Z,100081.00
2018-08-06T00:15:36.231Z,100081.00
2018-08-06T00:18:05.872Z,100068.00
2018-08-06T00:20:35.409Z,100074.00
2018-08-06T00:23:04.953Z,100074.00
2018-08-06T00:25:34.437Z,100071.00
2018-08-06T00:28:03.918Z,100068.00
2018-08-06T00:30:33.431Z,100073.00
2018-08-06T00:33:02.799Z,100068.00
2018-08-06T00:35:32.225Z,100066.00
2018-08-06T00:38:01.750Z,100063.00
2018-08-06T00:40:31.220Z,100066.00
2018-08-06T00:43:00.730Z,100067.00
2018-08-06T00:45:30.266Z,100069.00
2018-08-06T00:47:59.640Z,100065.00
2018-08-06T00:50:29.074Z,100067.00
2018-08-06T00:52:58.518Z,100066.00
2018-08-06T00:55:27.941Z,100059.00
2018-08-06T00:57:57.381Z,100061.00
2018-08-06T01:00:26.849Z,100059.00
2018-08-06T01:02:56.336Z,100061.00
2018-08-06T01:05:25.753Z,100061.00
2018-08-06T01:07:55.244Z,100061.00
2018-08-06T01:10:24.677Z,100060.00
2018-08-06T01:12:54.125Z,100062.00
2018-08-06T01:15:23.560Z,100061.00
2018-08-06T01:17:52.990Z,100059.00
2018-08-06T01:20:22.384Z,100056.00
2018-08-06T01:22:51.791Z,100061.00
2018-08-06T01:25:21.151Z,100056.00
2018-08-06T01:27:50.638Z,100059.00
2018-08-06T01:30:20.001Z,100059.00
2018-08-06T01:32:49.408Z,100064.00
2018-08-06T01:35:18.458Z,100061.00
2018-08-06T01:37:47.932Z,100064.00
2018-08-06T01:40:17.404Z,100061.00
2018-08-06T01:42:46.910Z,100065.00
2018-08-06T01:45:17.175Z,100056.00
2018-08-06T01:47:46.610Z,100060.00
2018-08-06T01:50:16.716Z,100058.00
2018-08-06T01:52:46.145Z,100054.00
2018-08-06T01:55:15.584Z,100047.00
2018-08-06T01:57:45.072Z,100048.00
2018-08-06T02:00:16.452Z,100049.00
2018-08-06T02:02:45.588Z,100049.00
2018-08-06T02:05:15.008Z,100038.00
2018-08-06T02:07:44.461Z,100037.00
2018-08-06T02:10:15.739Z,100038.00
2018-08-06T02:12:45.795Z,100032.00
2018-08-06T02:15:15.287Z,100036.00
2018-08-06T02:17:44.729Z,100030.00
2018-08-06T02:20:17.391Z,100025.00
2018-08-06T02:22:48.140Z,100024.00
2018-08-06T02:25:17.739Z,100020.00
2018-08-06T02:27:47.227Z,100015.00
2018-08-06T02:30:17.009Z,100018.00
2018-08-06T02:32:46.451Z,100013.00
2018-08-06T02:35:16.497Z,100011.00
2018-08-06T02:37:46.006Z,100011.00
2018-08-06T02:40:20.569Z,100013.00
2018-08-06T02:42:50.229Z,100014.00
2018-08-06T02:45:19.728Z,100011.00
2018-08-06T02:47:49.171Z,100006.00
2018-08-06T02:50:18.588Z,100006.00
2018-08-06T02:52:48.000Z,100002.00
2018-08-06T02:55:17.863Z,100001.00
2018-08-06T02:57:47.306Z,100002.00
2018-08-06T03:00:18.326Z,99997.00
2018-08-06T03:02:48.161Z,100006.00
2018-08-06T03:05:19.213Z,100002.00
2018-08-06T03:07:48.770Z,99997.00
2018-08-06T03:10:18.148Z,99994.00
2018-08-06T03:12:47.985Z,99991.00
2018-08-06T03:15:17.710Z,99993.00
2018-08-06T03:17:47.166Z,99993.00
2018-08-06T03:20:16.585Z,99991.00
2018-08-06T03:22:46.122Z,99990.00
2018-08-06T03:25:16.976Z,99987.00
2018-08-06T03:27:46.496Z,99986.00
2018-08-06T03:30:17.625Z,99986.00
2018-08-06T03:32:48.196Z,99990.00
2018-08-06T03:35:17.372Z,99986.00
2018-08-06T03:37:46.826Z,99989.00
2018-08-06T03:40:16.333Z,99991.00
2018-08-06T03:42:45.954Z,99992.00
2018-08-06T03:45:15.443Z,99985.00
2018-08-06T03:47:44.825Z,99985.00
2018-08-06T03:50:14.740Z,99986.00
2018-08-06T03:52:44.332Z,99987.00
2018-08-06T03:55:13.699Z,99992.00
2018-08-06T03:57:43.154Z,99990.00
2018-08-06T04:00:14.675Z,99986.00
2018-08-06T04:02:44.679Z,99990.00
2018-08-06T04:05:15.549Z,99994.00
2018-08-06T04:07:45.123Z,99992.00
2018-08-06T04:10:16.719Z,99994.00
2018-08-06T04:12:46.370Z,99997.00
2018-08-06T04:15:15.770Z,99998.00
2018-08-06T04:17:45.165Z,99999.00
2018-08-06T04:20:14.725Z,99997.00
2018-08-06T04:22:44.473Z,99996.00
2018-08-06T04:25:14.009Z,100000.00
2018-08-06T04:27:43.436Z,99999.00
2018-08-06T04:30:14.171Z,100004.00
2018-08-06T04:32:44.523Z,100008.00
2018-08-06T04:35:14.301Z,100009.00
2018-08-06T04:37:44.690Z,100016.00
2018-08-06T04:40:14.459Z,100012.00
2018-08-06T04:42:44.106Z,100015.00
2018-08-06T04:45:13.565Z,100016.00
2018-08-06T04:47:43.207Z,100012.00
2018-08-06T04:50:14.464Z,100009.00
2018-08-06T04:52:44.856Z,100004.00
2018-08-06T04:55:15.097Z,100003.00
2018-08-06T04:57:44.620Z,100000.00
2018-08-06T05:00:15.315Z,100002.00
2018-08-06T05:02:44.977Z,100003.00
2018-08-06T05:05:14.442Z,100010.00
2018-08-06T05:07:43.986Z,100006.00
2018-08-06T05:10:13.373Z,100017.00
2018-08-06T05:12:42.835Z,100015.00
2018-08-06T05:15:12.222Z,100014.00
2018-08-06T05:17:41.625Z,100015.00
2018-08-06T05:20:11.007Z,100020.00
2018-08-06T05:22:40.575Z,100018.00
2018-08-06T05:25:10.930Z,100017.00
2018-08-06T05:27:40.328Z,100014.00
2018-08-06T05:30:12.463Z,100015.00
2018-08-06T05:32:41.852Z,100014.00
2018-08-06T05:35:11.424Z,100015.00
2018-08-06T05:37:40.901Z,100020.00
2018-08-06T05:40:10.347Z,100019.00
2018-08-06T05:42:39.693Z,100019.00
2018-08-06T05:45:10.454Z,100021.00
2018-08-06T05:47:39.837Z,100020.00
2018-08-06T05:50:12.500Z,100027.00
2018-08-06T05:52:42.266Z,100017.00
2018-08-06T05:55:12.240Z,100021.00
2018-08-06T05:57:42.345Z,100017.00
2018-08-06T06:00:16.907Z,100018.00
2018-08-06T06:02:46.902Z,100020.00
2018-08-06T06:05:16.339Z,100015.00
2018-08-06T06:07:45.728Z,100014.00
2018-08-06T06:10:15.912Z,100011.00
2018-08-06T06:12:45.296Z,100006.00
2018-08-06T06:15:16.551Z,100012.00
2018-08-06T06:17:45.888Z,100007.00
2018-08-06T06:20:15.325Z,100011.00
2018-08-06T06:22:44.879Z,100012.00
2018-08-06T06:25:14.650Z,100014.00
2018-08-06T06:27:44.568Z,100007.00
2018-08-06T06:30:17.073Z,100009.00
2018-08-06T06:32:46.780Z,100006.00
2018-08-06T06:35:16.312Z,100007.00
2018-08-06T06:37:45.918Z,100005.00
2018-08-06T06:40:15.854Z,100003.00
2018-08-06T06:42:45.293Z,99999.00
2018-08-06T06:45:14.714Z,99998.00
2018-08-06T06:47:44.306Z,99997.00
2018-08-06T06:50:13.728Z,99995.00
2018-08-06T06:52:43.214Z,99987.00
2018-08-06T06:55:13.800Z,99992.00
2018-08-06T06:57:43.910Z,99990.00
2018-08-06T07:00:13.313Z,99988.00
2018-08-06T07:02:43.167Z,99991.00
2018-08-06T07:05:12.508Z,99982.00
2018-08-06T07:07:44.035Z,99985.00
2018-08-06T07:10:13.932Z,99982.00
2018-08-06T07:12:43.385Z,99982.00
2018-08-06T07:15:16.112Z,99981.00
2018-08-06T07:17:47.568Z,99985.00
2018-08-06T07:20:19.425Z,99983.00
2018-08-06T07:22:48.811Z,99978.00
2018-08-06T07:25:18.187Z,99974.00
2018-08-06T07:27:47.561Z,99968.00
2018-08-06T07:30:16.911Z,99959.00
2018-08-06T07:32:46.332Z,99959.00
2018-08-06T07:35:15.850Z,99961.00
2018-08-06T07:37:45.197Z,99958.00
2018-08-06T07:40:15.378Z,99955.00
2018-08-06T07:42:44.776Z,99955.00
2018-08-06T07:45:20.050Z,99961.00
2018-08-06T07:47:49.916Z,99957.00
2018-08-06T07:50:20.644Z,99953.00
2018-08-06T07:52:50.021Z,99946.00
2018-08-06T07:55:19.368Z,99945.00
2018-08-06T07:57:48.712Z,99946.00
2018-08-06T08:00:20.071Z,99944.00
2018-08-06T08:02:49.493Z,99942.00
2018-08-06T08:05:19.553Z,99941.00
2018-08-06T08:07:49.359Z,99941.00
2018-08-06T08:10:23.221Z,99939.00
2018-08-06T08:12:52.631Z,99942.00
2018-08-06T08:15:24.907Z,99938.00
2018-08-06T08:17:55.120Z,99938.00
2018-08-06T08:20:24.482Z,99941.00
2018-08-06T08:22:53.891Z,99935.00
2018-08-06T08:25:23.785Z,99932.00
2018-08-06T08:27:53.180Z,99935.00
2018-08-06T08:30:22.600Z,99932.00
2018-08-06T08:32:52.016Z,99928.00
2018-08-06T08:35:25.260Z,99921.00
2018-08-06T08:37:54.592Z,99919.00
2018-08-06T08:40:24.013Z,99917.00
2018-08-06T08:42:53.387Z,99915.00
2018-08-06T08:45:22.791Z,99916.00
2018-08-06T08:47:52.105Z,99914.00
2018-08-06T08:50:21.536Z,99910.00
2018-08-06T08:52:50.857Z,99911.00
2018-08-06T08:55:20.858Z,99903.00
2018-08-06T08:57:50.286Z,99902.00
2018-08-06T09:00:22.017Z,99897.00
2018-08-06T09:02:52.404Z,99896.00
2018-08-06T09:05:21.966Z,99886.00
2018-08-06T09:07:52.378Z,99888.00
2018-08-06T09:10:21.861Z,99888.00
2018-08-06T09:12:51.233Z,99889.00
2018-08-06T09:15:24.328Z,99885.00
2018-08-06T09:17:53.394Z,99882.00
2018-08-06T09:20:23.649Z,99885.00
2018-08-06T09:22:53.063Z,99880.00
2018-08-06T09:25:23.468Z,99879.00
2018-08-06T09:27:52.960Z,99881.00
2018-08-06T09:30:23.688Z,99876.00
2018-08-06T09:32:54.286Z,99876.00
2018-08-06T09:35:23.676Z,99872.00
2018-08-06T09:37:53.007Z,99869.00
2018-08-06T09:40:23.320Z,99875.00
2018-08-06T09:42:53.137Z,99869.00
2018-08-06T09:45:23.159Z,99857.00
2018-08-06T09:47:53.387Z,99854.00
2018-08-06T09:50:23.201Z,99853.00
2018-08-06T09:52:53.448Z,99851.00
2018-08-06T09:55:24.695Z,99854.00
2018-08-06T09:57:54.317Z,99841.00
2018-08-06T10:00:29.216Z,99844.00
2018-08-06T10:03:00.022Z,99844.00
2018-08-06T10:05:29.848Z,99839.00
2018-08-06T10:07:59.171Z,99836.00
2018-08-06T10:10:28.508Z,99829.00
2018-08-06T10:12:57.880Z,99839.00
2018-08-06T10:15:27.219Z,99835.00
2018-08-06T10:17:56.760Z,99832.00
2018-08-06T10:20:26.737Z,99830.00
2018-08-06T10:22:56.084Z,99824.00
2018-08-06T10:25:25.432Z,99824.00
2018-08-06T10:27:54.748Z,99823.00
2018-08-06T10:30:24.281Z,99823.00
2018-08-06T10:32:53.593Z,99815.00
2018-08-06T10:35:22.972Z,99815.00
2018-08-06T10:37:52.340Z,99807.00
2018-08-06T10:40:22.838Z,99804.00
2018-08-06T10:42:52.262Z,99801.00
2018-08-06T10:45:22.823Z,99803.00
2018-08-06T10:47:52.663Z,99792.00
2018-08-06T10:50:22.057Z,99789.00
2018-08-06T10:52:51.439Z,99784.00
2018-08-06T10:55:20.813Z,99783.00
2018-08-06T10:57:50.167Z,99777.00
2018-08-06T11:00:20.771Z,99774.00
2018-08-06T11:02:50.614Z,99768.00
2018-08-06T11:05:20.577Z,99768.00
2018-08-06T11:07:49.912Z,99769.00
2018-08-06T11:10:21.524Z,99767.00
2018-08-06T11:12:50.929Z,99765.00
2018-08-06T11:15:21.832Z,99761.00
2018-08-06T11:17:51.226Z,99758.00
2018-08-06T11:20:21.316Z,99759.00
2018-08-06T11:22:50.695Z,99747.00
2018-08-06T11:25:21.900Z,99749.00
2018-08-06T11:27:51.288Z,99752.00
2018-08-06T11:30:21.933Z,99751.00
2018-08-06T11:32:51.973Z,99744.00
2018-08-06T11:35:21.314Z,99752.00
2018-08-06T11:37:50.770Z,99740.00
2018-08-06T11:40:20.112Z,99740.00
2018-08-06T11:42:49.586Z,99735.00
2018-08-06T11:45:20.166Z,99732.00
2018-08-06T11:47:50.420Z,99728.00
2018-08-06T11:50:19.809Z,99718.00
2018-08-06T11:52:49.255Z,99721.00
2018-08-06T11:55:18.662Z,99713.00
2018-08-06T11:57:48.032Z,99710.00
2018-08-06T12:00:20.963Z,99708.00
2018-08-06T12:02:50.351Z,99700.00
2018-08-06T12:05:23.109Z,99705.00
2018-08-06T12:07:58.986Z,99705.00
2018-08-06T12:10:31.225Z,99703.00
2018-08-06T12:13:05.320Z,99702.00
2018-08-06T12:15:37.408Z,99703.00
2018-08-06T12:18:09.082Z,99691.00
2018-08-06T12:20:38.489Z,99688.00
2018-08-06T12:23:07.995Z,99695.00
2018-08-06T12:25:37.406Z,99689.00
2018-08-06T12:28:06.811Z,99686.00
2018-08-06T12:30:36.204Z,99690.00
2018-08-06T12:33:05.645Z,99686.00
2018-08-06T12:35:35.032Z,99678.00
2018-08-06T12:38:04.435Z,99677.00
2018-08-06T12:40:33.802Z,99673.00
2018-08-06T12:43:03.149Z,99678.00
2018-08-06T12:45:32.671Z,99672.00
2018-08-06T12:48:02.033Z,99666.00
2018-08-06T12:50:31.120Z,99672.00
2018-08-06T12:53:00.495Z,99671.00
2018-08-06T12:55:29.886Z,99667.00
2018-08-06T12:57:59.286Z,99658.00
2018-08-06T13:00:28.679Z,99657.00
2018-08-06T13:02:58.069Z,99654.00
2018-08-06T13:05:27.432Z,99654.00
2018-08-06T13:07:56.864Z,99650.00
2018-08-06T13:10:26.221Z,99655.00
2018-08-06T13:12:55.641Z,99648.00
2018-08-06T13:15:24.967Z,99649.00
2018-08-06T13:17:54.410Z,99646.00
2018-08-06T13:20:23.751Z,99639.00
2018-08-06T13:22:53.151Z,99636.00
2018-08-06T13:25:22.642Z,99635.00
2018-08-06T13:27:52.008Z,99622.00
2018-08-06T13:30:21.389Z,99625.00
2018-08-06T13:32:50.771Z,99620.00
2018-08-06T13:35:20.180Z,99616.00
2018-08-06T13:37:49.612Z,99618.00
2018-08-06T13:40:18.943Z,99613.00
2018-08-06T13:42:48.329Z,99619.00
2018-08-06T13:45:17.672Z,99609.00
2018-08-06T13:47:47.042Z,99607.00
2018-08-06T13:50:16.478Z,99605.00
2018-08-06T13:52:45.831Z,99601.00
2018-08-06T13:55:15.290Z,99599.00
2018-08-06T13:57:44.674Z,99592.00
2018-08-06T14:00:17.022Z,99594.00
2018-08-06T14:02:46.523Z,99580.00
2018-08-06T14:05:17.035Z,99583.00
2018-08-06T14:07:47.392Z,99585.00
2018-08-06T14:10:17.059Z,99580.00
2018-08-06T14:12:46.624Z,99580.00
2018-08-06T14:15:16.003Z,99580.00
2018-08-06T14:17:45.417Z,99577.00
2018-08-06T14:20:16.958Z,99571.00
2018-08-06T14:22:46.305Z,99569.00
2018-08-06T14:25:15.701Z,99563.00
2018-08-06T14:27:45.069Z,99563.00
2018-08-06T14:30:16.056Z,99560.00
2018-08-06T14:32:45.863Z,99553.00
2018-08-06T14:35:15.707Z,99556.00
2018-08-06T14:37:45.075Z,99550.00
2018-08-06T14:40:16.956Z,99546.00
2018-08-06T14:42:46.707Z,99547.00
2018-08-06T14:45:16.221Z,99543.00
2018-08-06T14:47:45.558Z,99538.00
2018-08-06T14:50:15.487Z,99534.00
2018-08-06T14:52:44.862Z,99526.00
2018-08-06T14:55:14.227Z,99526.00
2018-08-06T14:57:43.628Z,99527.00
2018-08-06T15:00:21.825Z,99526.00
2018-08-06T15:02:52.436Z,99523.00
2018-08-06T15:05:21.868Z,99519.00
2018-08-06T15:07:51.366Z,99513.00
2018-08-06T15:10:20.847Z,99511.00
2018-08-06T15:12:50.163Z,99513.00
2018-08-06T15:15:19.648Z,99509.00
2018-08-06T15:17:49.015Z,99512.00
2018-08-06T15:20:19.460Z,99510.00
2018-08-06T15:22:49.060Z,99503.00
2018-08-06T15:25:21.103Z,99502.00
2018-08-06T15:27:50.746Z,99501.00
2018-08-06T15:30:20.191Z,99500.00
2018-08-06T15:32:49.602Z,99503.00
2018-08-06T15:35:18.984Z,99503.00
2018-08-06T15:37:48.418Z,99491.00
2018-08-06T15:40:19.708Z,99493.00
2018-08-06T15:42:49.133Z,99482.00
2018-08-06T15:45:18.569Z,99484.00
2018-08-06T15:47:47.937Z,99482.00
2018-08-06T15:50:19.745Z,99483.00
2018-08-06T15:52:49.147Z,99485.00
2018-08-06T15:55:18.564Z,99475.00
2018-08-06T15:57:47.949Z,99480.00
2018-08-06T16:00:18.588Z,99478.00
2018-08-06T16:02:48.137Z,99473.00
2018-08-06T16:05:17.515Z,99466.00
2018-08-06T16:07:47.041Z,99467.00
2018-08-06T16:10:16.755Z,99463.00
2018-08-06T16:12:46.128Z,99460.00
2018-08-06T16:15:16.304Z,99453.00
2018-08-06T16:17:45.942Z,99458.00
2018-08-06T16:20:16.578Z,99452.00
2018-08-06T16:22:46.042Z,99455.00
2018-08-06T16:25:15.628Z,99449.00
2018-08-06T16:27:45.055Z,99441.00
2018-08-06T16:30:20.106Z,99441.00
2018-08-06T16:32:49.905Z,99438.00
2018-08-06T16:35:21.429Z,99427.00
2018-08-06T16:37:52.732Z,99421.00
2018-08-06T16:40:22.133Z,99435.00
2018-08-06T16:42:52.113Z,99434.00
2018-08-06T16:45:21.790Z,99437.00
2018-08-06T16:47:51.286Z,99438.00
2018-08-06T16:50:20.685Z,99432.00
2018-08-06T16:52:50.575Z,99434.00
2018-08-06T16:55:19.407Z,99433.00
2018-08-06T16:57:48.761Z,99429.00
2018-08-06T17:00:20.459Z,99427.00
2018-08-06T17:02:50.865Z,99430.00
2018-08-06T17:05:20.292Z,99428.00
2018-08-06T17:07:50.505Z,99427.00
2018-08-06T17:10:21.155Z,99427.00
2018-08-06T17:12:52.531Z,99427.00
2018-08-06T17:15:22.497Z,99430.00
2018-08-06T17:17:54.964Z,99424.00
2018-08-06T17:20:25.258Z,99426.00
2018-08-06T17:22:54.694Z,99428.00
2018-08-06T17:25:24.084Z,99426.00
2018-08-06T17:27:53.491Z,99420.00
2018-08-06T17:30:22.841Z,99425.00
2018-08-06T17:32:52.239Z,99419.00
2018-08-06T17:35:21.702Z,99419.00
2018-08-06T17:37:51.108Z,99422.00
2018-08-06T17:40:20.532Z,99423.00
2018-08-06T17:42:50.013Z,99419.00
2018-08-06T17:45:21.040Z,99418.00
2018-08-06T17:47:50.509Z,99424.00
2018-08-06T17:50:21.270Z,99422.00
2018-08-06T17:52:51.517Z,99424.00
2018-08-06T17:55:21.953Z,99427.00
2018-08-06T17:57:51.393Z,99430.00
2018-08-06T18:00:21.104Z,99431.00
2018-08-06T18:02:50.641Z,99438.00
2018-08-06T18:05:20.074Z,99437.00
2018-08-06T18:07:49.526Z,99436.00
2018-08-06T18:10:19.094Z,99438.00
2018-08-06T18:12:48.776Z,99436.00
2018-08-06T18:15:18.177Z,99436.00
2018-08-06T18:17:47.860Z,99436.00
2018-08-06T18:20:18.724Z,99438.00
2018-08-06T18:22:49.119Z,99443.00
2018-08-06T18:25:19.572Z,99442.00
2018-08-06T18:27:49.938Z,99441.00
2018-08-06T18:30:21.611Z,99444.00
2018-08-06T18:32:51.234Z,99448.00
2018-08-06T18:35:20.941Z,99452.00
2018-08-06T18:37:50.620Z,99457.00
2018-08-06T18:40:24.068Z,99455.00
2018-08-06T18:42:53.507Z,99460.00
2018-08-06T18:45:22.975Z,99455.00
2018-08-06T18:47:53.078Z,99459.00
2018-08-06T18:50:22.531Z,99456.00
2018-08-06T18:52:52.106Z,99455.00
2018-08-06T18:55:22.438Z,99457.00
2018-08-06T18:57:51.906Z,99458.00
2018-08-06T19:00:22.910Z,99460.00
2018-08-06T19:02:52.638Z,99462.00
2018-08-06T19:05:22.411Z,99465.00
2018-08-06T19:07:52.508Z,99470.00
2018-08-06T19:10:23.486Z,99476.00
2018-08-06T19:12:58.131Z,99474.00
2018-08-06T19:15:27.615Z,99478.00
2018-08-06T19:18:02.268Z,99479.00
2018-08-06T19:20:31.769Z,99476.00
2018-08-06T19:23:01.299Z,99480.00
2018-08-06T19:25:32.025Z,99482.00
2018-08-06T19:28:01.645Z,99487.00
2018-08-06T19:30:36.516Z,99486.00
2018-08-06T19:33:06.579Z,99486.00
2018-08-06T19:35:37.285Z,99488.00
2018-08-06T19:38:06.736Z,99485.00
2018-08-06T19:40:36.186Z,99487.00
2018-08-06T19:43:10.953Z,99485.00
2018-08-06T19:45:40.413Z,99486.00
2018-08-06T19:48:09.900Z,99489.00
2018-08-06T19:50:41.241Z,99492.00
2018-08-06T19:53:10.684Z,99494.00
2018-08-06T19:55:45.393Z,99494.00
2018-08-06T19:58:14.785Z,99501.00
2018-08-06T20:00:44.226Z,99502.00
2018-08-06T20:03:13.703Z,99502.00
2018-08-06T20:05:43.603Z,99502.00
2018-08-06T20:08:13.250Z,99505.00
2018-08-06T20:10:42.720Z,99514.00
2018-08-06T20:13:12.164Z,99513.00
2018-08-06T20:15:41.625Z,99510.00
2018-08-06T20:18:11.106Z,99512.00
2018-08-06T20:20:40.711Z,99512.00
2018-08-06T20:23:10.346Z,99507.00
2018-08-06T20:25:45.040Z,99505.00
2018-08-06T20:28:14.503Z,99503.00
2018-08-06T20:30:43.684Z,99504.00
2018-08-06T20:33:20.624Z,99503.00
2018-08-06T20:35:50.406Z,99503.00
2018-08-06T20:38:21.916Z,99497.00
2018-08-06T20:40:55.189Z,99497.00
2018-08-06T20:43:24.604Z,99495.00
2018-08-06T20:45:54.086Z,99495.00
2018-08-06T20:48:27.897Z,99493.00
2018-08-06T20:50:57.447Z,99499.00
2018-08-06T20:53:27.345Z,99503.00
2018-08-06T20:57:06.577Z,99505.00
2018-08-06T20:59:36.146Z,99510.00
2018-08-06T21:02:16.577Z,99510.00
2018-08-06T21:04:45.731Z,99513.00
2018-08-06T21:07:15.620Z,99510.00
2018-08-06T21:09:45.601Z,99509.00
2018-08-06T21:12:15.040Z,99512.00
2018-08-06T21:15:04.867Z,99516.00
2018-08-06T21:17:45.480Z,99515.00
2018-08-06T21:20:16.995Z,99517.00
2018-08-06T21:22:48.499Z,99525.00
2018-08-06T21:25:22.774Z,99520.00
2018-08-06T21:27:52.992Z,99522.00
2018-08-06T21:30:26.752Z,99516.00
2018-08-06T21:32:57.617Z,99516.00
2018-08-06T21:35:30.563Z,99516.00
2018-08-06T21:38:00.058Z,99518.00
2018-08-06T21:40:32.688Z,99514.00
2018-08-06T21:43:02.161Z,99519.00
2018-08-06T21:45:31.757Z,99520.00
2018-08-06T21:48:01.160Z,99521.00
2018-08-06T21:50:30.610Z,99524.00
2018-08-06T21:53:00.026Z,99525.00
2018-08-06T21:55:29.514Z,99523.00
2018-08-06T21:57:58.946Z,99527.00
2018-08-06T22:00:35.567Z,99521.00
2018-08-06T22:03:07.402Z,99517.00
2018-08-06T22:05:36.891Z,99520.00
2018-08-06T22:08:06.357Z,99520.00
2018-08-06T22:10:36.026Z,99520.00
2018-08-06T22:13:06.131Z,99526.00
2018-08-06T22:15:35.611Z,99523.00
2018-08-06T22:18:05.697Z,99519.00
2018-08-06T22:20:35.121Z,99519.00
2018-08-06T22:23:04.524Z,99524.00
2018-08-06T22:25:33.962Z,99523.00
2018-08-06T22:28:03.409Z,99523.00
2018-08-06T22:30:32.848Z,99523.00
2018-08-06T22:33:02.316Z,99517.00
2018-08-06T22:35:31.762Z,99516.00
2018-08-06T22:38:01.177Z,99511.00
2018-08-06T22:40:30.612Z,99511.00
2018-08-06T22:43:00.036Z,99506.00
2018-08-06T22:45:29.469Z,99511.00
2018-08-06T22:47:58.895Z,99504.00
2018-08-06T22:50:28.272Z,99504.00
2018-08-06T22:52:57.719Z,99507.00
2018-08-06T22:55:27.133Z,99504.00
2018-08-06T22:57:56.596Z,99501.00
2018-08-06T23:00:25.987Z,99503.00
2018-08-06T23:02:55.165Z,99504.00
2018-08-06T23:05:24.615Z,99507.00
2018-08-06T23:07:54.072Z,99509.00
2018-08-06T23:10:23.549Z,99506.00
2018-08-06T23:12:52.965Z,99498.00
2018-08-06T23:15:22.412Z,99499.00
2018-08-06T23:17:51.898Z,99500.00
2018-08-06T23:20:21.352Z,99496.00
2018-08-06T23:22:50.809Z,99490.00
2018-08-06T23:25:23.288Z,99491.00
2018-08-06T23:27:52.754Z,99482.00
2018-08-06T23:30:22.206Z,99481.00
2018-08-06T23:32:51.594Z,99481.00
2018-08-06T23:35:20.957Z,99478.00
2018-08-06T23:37:50.437Z,99468.00
2018-08-06T23:40:19.909Z,99470.00
2018-08-06T23:42:49.289Z,99469.00
2018-08-06T23:45:18.759Z,99469.00
2018-08-06T23:47:48.156Z,99470.00
2018-08-06T23:50:17.531Z,99470.00
2018-08-06T23:52:47.037Z,99469.00
2018-08-06T23:55:18.561Z,99469.00
2018-08-06T23:57:48.040Z,99460.00
